sensor_id;sensor_type;location;lat;lon;timestamp;P1;durP1;ratioP1;P2;durP2;ratioP2
8831;SDS011;4452;50.756;4.472;2024-02-04T00:01:55;27.40;;;11.88;;
8831;SDS011;4452;50.756;4.472;2024-02-04T00:04:21;18.95;;;8.57;;
8831;SDS011;4452;50.756;4.472;2024-02-04T00:06:48;29.70;;;11.35;;
8831;SDS011;4452;50.756;4.472;2024-02-04T00:09:14;21.38;;;11.57;;
8831;SDS011;4452;50.756;4.472;2024-02-04T00:11:40;14.82;;;9.35;;
8831;SDS011;4452;50.756;4.472;2024-02-04T00:14:05;18.40;;;9.07;;
8831;SDS011;4452;50.756;4.472;2024-02-04T00:16:34;16.17;;;9.88;;
8831;SDS011;4452;50.756;4.472;2024-02-04T00:19:02;17.70;;;8.80;;
8831;SDS011;4452;50.756;4.472;2024-02-04T00:21:27;16.38;;;8.32;;
8831;SDS011;4452;50.756;4.472;2024-02-04T00:23:53;15.43;;;9.43;;
8831;SDS011;4452;50.756;4.472;2024-02-04T00:26:19;25.38;;;11.82;;
8831;SDS011;4452;50.756;4.472;2024-02-04T00:28:45;20.08;;;10.23;;
8831;SDS011;4452;50.756;4.472;2024-02-04T00:31:10;17.70;;;10.18;;
8831;SDS011;4452;50.756;4.472;2024-02-04T00:33:36;14.43;;;8.85;;
8831;SDS011;4452;50.756;4.472;2024-02-04T00:36:02;14.32;;;8.40;;
8831;SDS011;4452;50.756;4.472;2024-02-04T00:38:28;31.00;;;12.40;;
8831;SDS011;4452;50.756;4.472;2024-02-04T00:40:54;22.25;;;10.43;;
8831;SDS011;4452;50.756;4.472;2024-02-04T00:43:21;23.77;;;11.38;;
8831;SDS011;4452;50.756;4.472;2024-02-04T00:45:47;19.25;;;8.43;;
8831;SDS011;4452;50.756;4.472;2024-02-04T00:48:13;18.38;;;11.32;;
8831;SDS011;4452;50.756;4.472;2024-02-04T00:50:39;13.65;;;7.43;;
8831;SDS011;4452;50.756;4.472;2024-02-04T00:53:04;19.60;;;8.90;;
8831;SDS011;4452;50.756;4.472;2024-02-04T00:55:30;19.08;;;8.52;;
8831;SDS011;4452;50.756;4.472;2024-02-04T00:57:56;14.27;;;8.13;;
8831;SDS011;4452;50.756;4.472;2024-02-04T01:00:25;19.10;;;9.07;;
8831;SDS011;4452;50.756;4.472;2024-02-04T01:02:51;18.95;;;8.68;;
8831;SDS011;4452;50.756;4.472;2024-02-04T01:05:16;13.18;;;8.25;;
8831;SDS011;4452;50.756;4.472;2024-02-04T01:07:42;21.52;;;9.82;;
8831;SDS011;4452;50.756;4.472;2024-02-04T01:10:08;25.13;;;10.60;;
8831;SDS011;4452;50.756;4.472;2024-02-04T01:12:34;13.95;;;7.10;;
8831;SDS011;4452;50.756;4.472;2024-02-04T01:14:59;24.42;;;9.68;;
8831;SDS011;4452;50.756;4.472;2024-02-04T01:17:26;22.05;;;9.80;;
8831;SDS011;4452;50.756;4.472;2024-02-04T01:19:52;15.05;;;7.40;;
8831;SDS011;4452;50.756;4.472;2024-02-04T01:22:17;13.75;;;6.97;;
8831;SDS011;4452;50.756;4.472;2024-02-04T01:24:43;13.80;;;6.43;;
8831;SDS011;4452;50.756;4.472;2024-02-04T01:27:09;15.52;;;8.07;;
8831;SDS011;4452;50.756;4.472;2024-02-04T01:29:35;16.58;;;7.47;;
8831;SDS011;4452;50.756;4.472;2024-02-04T01:32:00;12.60;;;5.53;;
8831;SDS011;4452;50.756;4.472;2024-02-04T01:34:26;17.40;;;6.10;;
8831;SDS011;4452;50.756;4.472;2024-02-04T01:36:52;22.10;;;11.52;;
8831;SDS011;4452;50.756;4.472;2024-02-04T01:39:17;20.25;;;10.07;;
8831;SDS011;4452;50.756;4.472;2024-02-04T01:41:43;20.38;;;9.63;;
8831;SDS011;4452;50.756;4.472;2024-02-04T01:44:10;20.38;;;10.13;;
8831;SDS011;4452;50.756;4.472;2024-02-04T01:46:36;18.33;;;8.63;;
8831;SDS011;4452;50.756;4.472;2024-02-04T01:49:02;19.02;;;10.00;;
8831;SDS011;4452;50.756;4.472;2024-02-04T01:51:28;14.90;;;8.35;;
8831;SDS011;4452;50.756;4.472;2024-02-04T01:53:53;21.52;;;8.77;;
8831;SDS011;4452;50.756;4.472;2024-02-04T01:56:19;13.82;;;8.45;;
8831;SDS011;4452;50.756;4.472;2024-02-04T01:58:45;24.13;;;10.23;;
8831;SDS011;4452;50.756;4.472;2024-02-04T02:01:12;13.63;;;7.03;;
8831;SDS011;4452;50.756;4.472;2024-02-04T02:03:38;19.33;;;8.23;;
8831;SDS011;4452;50.756;4.472;2024-02-04T02:06:05;29.70;;;12.57;;
8831;SDS011;4452;50.756;4.472;2024-02-04T02:08:31;23.95;;;9.70;;
8831;SDS011;4452;50.756;4.472;2024-02-04T02:11:05;29.40;;;11.80;;
8831;SDS011;4452;50.756;4.472;2024-02-04T02:13:55;21.38;;;9.25;;
8831;SDS011;4452;50.756;4.472;2024-02-04T02:16:25;21.65;;;9.95;;
8831;SDS011;4452;50.756;4.472;2024-02-04T02:18:57;30.13;;;10.82;;
8831;SDS011;4452;50.756;4.472;2024-02-04T02:21:53;22.10;;;9.38;;
8831;SDS011;4452;50.756;4.472;2024-02-04T02:26:57;20.70;;;9.85;;
8831;SDS011;4452;50.756;4.472;2024-02-04T02:29:24;26.67;;;10.35;;
8831;SDS011;4452;50.756;4.472;2024-02-04T02:31:49;21.48;;;9.88;;
8831;SDS011;4452;50.756;4.472;2024-02-04T02:34:15;23.80;;;8.70;;
8831;SDS011;4452;50.756;4.472;2024-02-04T02:36:49;19.77;;;9.38;;
8831;SDS011;4452;50.756;4.472;2024-02-04T02:39:23;13.75;;;7.93;;
8831;SDS011;4452;50.756;4.472;2024-02-04T02:41:56;27.05;;;10.20;;
8831;SDS011;4452;50.756;4.472;2024-02-04T02:44:25;23.33;;;10.93;;
8831;SDS011;4452;50.756;4.472;2024-02-04T02:46:52;29.92;;;9.85;;
8831;SDS011;4452;50.756;4.472;2024-02-04T02:49:19;20.20;;;8.98;;
8831;SDS011;4452;50.756;4.472;2024-02-04T02:51:45;32.45;;;10.02;;
8831;SDS011;4452;50.756;4.472;2024-02-04T02:54:10;30.85;;;11.05;;
8831;SDS011;4452;50.756;4.472;2024-02-04T02:56:37;33.80;;;10.00;;
8831;SDS011;4452;50.756;4.472;2024-02-04T02:59:03;31.98;;;10.50;;
8831;SDS011;4452;50.756;4.472;2024-02-04T03:01:29;31.27;;;11.35;;
8831;SDS011;4452;50.756;4.472;2024-02-04T03:03:55;31.88;;;11.05;;
8831;SDS011;4452;50.756;4.472;2024-02-04T03:06:21;31.02;;;10.68;;
8831;SDS011;4452;50.756;4.472;2024-02-04T03:08:47;26.23;;;8.95;;
8831;SDS011;4452;50.756;4.472;2024-02-04T03:11:12;25.20;;;9.02;;
8831;SDS011;4452;50.756;4.472;2024-02-04T03:13:38;26.63;;;9.98;;
8831;SDS011;4452;50.756;4.472;2024-02-04T03:16:09;28.17;;;11.07;;
8831;SDS011;4452;50.756;4.472;2024-02-04T03:18:38;40.50;;;11.65;;
8831;SDS011;4452;50.756;4.472;2024-02-04T03:21:11;35.50;;;9.48;;
8831;SDS011;4452;50.756;4.472;2024-02-04T03:23:37;39.22;;;11.55;;
8831;SDS011;4452;50.756;4.472;2024-02-04T03:26:03;29.08;;;10.55;;
8831;SDS011;4452;50.756;4.472;2024-02-04T03:28:29;28.00;;;9.20;;
8831;SDS011;4452;50.756;4.472;2024-02-04T03:30:54;33.67;;;10.75;;
8831;SDS011;4452;50.756;4.472;2024-02-04T03:33:20;21.38;;;7.63;;
8831;SDS011;4452;50.756;4.472;2024-02-04T03:35:46;29.52;;;11.23;;
8831;SDS011;4452;50.756;4.472;2024-02-04T03:38:12;29.38;;;9.43;;
8831;SDS011;4452;50.756;4.472;2024-02-04T03:40:39;27.30;;;9.25;;
8831;SDS011;4452;50.756;4.472;2024-02-04T03:43:08;19.13;;;7.55;;
8831;SDS011;4452;50.756;4.472;2024-02-04T03:45:37;24.48;;;9.70;;
8831;SDS011;4452;50.756;4.472;2024-02-04T03:48:03;29.83;;;9.10;;
8831;SDS011;4452;50.756;4.472;2024-02-04T03:50:29;33.63;;;10.68;;
8831;SDS011;4452;50.756;4.472;2024-02-04T03:52:55;32.00;;;9.98;;
8831;SDS011;4452;50.756;4.472;2024-02-04T03:55:20;25.85;;;9.57;;
8831;SDS011;4452;50.756;4.472;2024-02-04T03:57:47;23.55;;;7.60;;
8831;SDS011;4452;50.756;4.472;2024-02-04T04:00:13;26.13;;;9.38;;
8831;SDS011;4452;50.756;4.472;2024-02-04T04:02:39;26.02;;;8.68;;
8831;SDS011;4452;50.756;4.472;2024-02-04T04:05:05;22.58;;;8.43;;
8831;SDS011;4452;50.756;4.472;2024-02-04T04:07:35;23.02;;;6.85;;
8831;SDS011;4452;50.756;4.472;2024-02-04T04:10:01;10.23;;;5.22;;
8831;SDS011;4452;50.756;4.472;2024-02-04T04:12:27;17.80;;;7.38;;
8831;SDS011;4452;50.756;4.472;2024-02-04T04:14:52;24.40;;;7.55;;
8831;SDS011;4452;50.756;4.472;2024-02-04T04:17:18;22.73;;;7.43;;
8831;SDS011;4452;50.756;4.472;2024-02-04T04:19:44;25.33;;;8.43;;
8831;SDS011;4452;50.756;4.472;2024-02-04T04:22:10;22.35;;;7.63;;
8831;SDS011;4452;50.756;4.472;2024-02-04T04:24:35;20.10;;;8.75;;
8831;SDS011;4452;50.756;4.472;2024-02-04T04:27:03;27.38;;;9.95;;
8831;SDS011;4452;50.756;4.472;2024-02-04T04:29:28;19.15;;;8.15;;
8831;SDS011;4452;50.756;4.472;2024-02-04T04:31:54;28.42;;;9.30;;
8831;SDS011;4452;50.756;4.472;2024-02-04T04:34:20;24.45;;;8.10;;
8831;SDS011;4452;50.756;4.472;2024-02-04T04:36:46;24.27;;;9.65;;
8831;SDS011;4452;50.756;4.472;2024-02-04T04:39:12;26.67;;;8.32;;
8831;SDS011;4452;50.756;4.472;2024-02-04T04:41:39;20.60;;;7.80;;
8831;SDS011;4452;50.756;4.472;2024-02-04T04:44:06;31.40;;;9.43;;
8831;SDS011;4452;50.756;4.472;2024-02-04T04:46:31;20.60;;;7.53;;
8831;SDS011;4452;50.756;4.472;2024-02-04T04:48:57;28.52;;;9.55;;
8831;SDS011;4452;50.756;4.472;2024-02-04T04:51:23;19.00;;;7.65;;
8831;SDS011;4452;50.756;4.472;2024-02-04T04:53:49;12.52;;;6.70;;
8831;SDS011;4452;50.756;4.472;2024-02-04T04:56:16;18.15;;;7.00;;
8831;SDS011;4452;50.756;4.472;2024-02-04T04:58:42;22.85;;;8.00;;
8831;SDS011;4452;50.756;4.472;2024-02-04T05:01:07;30.02;;;9.25;;
8831;SDS011;4452;50.756;4.472;2024-02-04T05:03:33;22.08;;;7.93;;
8831;SDS011;4452;50.756;4.472;2024-02-04T05:05:59;29.88;;;8.85;;
8831;SDS011;4452;50.756;4.472;2024-02-04T05:08:26;25.85;;;8.73;;
8831;SDS011;4452;50.756;4.472;2024-02-04T05:10:52;20.60;;;8.48;;
8831;SDS011;4452;50.756;4.472;2024-02-04T05:13:17;24.30;;;7.90;;
8831;SDS011;4452;50.756;4.472;2024-02-04T05:15:43;32.33;;;10.38;;
8831;SDS011;4452;50.756;4.472;2024-02-04T05:18:09;15.68;;;7.40;;
8831;SDS011;4452;50.756;4.472;2024-02-04T05:20:34;30.83;;;9.93;;
8831;SDS011;4452;50.756;4.472;2024-02-04T05:23:01;17.77;;;7.07;;
8831;SDS011;4452;50.756;4.472;2024-02-04T05:25:27;18.48;;;7.43;;
8831;SDS011;4452;50.756;4.472;2024-02-04T05:27:52;25.98;;;9.25;;
8831;SDS011;4452;50.756;4.472;2024-02-04T05:30:18;31.65;;;9.45;;
8831;SDS011;4452;50.756;4.472;2024-02-04T05:32:44;26.45;;;9.55;;
8831;SDS011;4452;50.756;4.472;2024-02-04T05:35:10;20.48;;;6.78;;
8831;SDS011;4452;50.756;4.472;2024-02-04T05:37:36;18.63;;;7.68;;
8831;SDS011;4452;50.756;4.472;2024-02-04T05:40:02;31.25;;;9.90;;
8831;SDS011;4452;50.756;4.472;2024-02-04T05:42:30;38.65;;;10.13;;
8831;SDS011;4452;50.756;4.472;2024-02-04T05:44:57;23.05;;;8.80;;
8831;SDS011;4452;50.756;4.472;2024-02-04T05:47:23;17.33;;;6.65;;
8831;SDS011;4452;50.756;4.472;2024-02-04T05:49:49;31.63;;;10.35;;
8831;SDS011;4452;50.756;4.472;2024-02-04T05:52:15;14.98;;;6.32;;
8831;SDS011;4452;50.756;4.472;2024-02-04T05:54:41;25.02;;;7.97;;
8831;SDS011;4452;50.756;4.472;2024-02-04T05:57:06;26.80;;;8.48;;
8831;SDS011;4452;50.756;4.472;2024-02-04T05:59:33;38.15;;;8.23;;
8831;SDS011;4452;50.756;4.472;2024-02-04T06:01:59;24.17;;;8.85;;
8831;SDS011;4452;50.756;4.472;2024-02-04T06:04:25;32.25;;;10.10;;
8831;SDS011;4452;50.756;4.472;2024-02-04T06:06:51;39.22;;;10.50;;
8831;SDS011;4452;50.756;4.472;2024-02-04T06:09:16;29.20;;;8.40;;
8831;SDS011;4452;50.756;4.472;2024-02-04T06:11:45;48.50;;;12.65;;
8831;SDS011;4452;50.756;4.472;2024-02-04T06:14:12;26.48;;;8.60;;
8831;SDS011;4452;50.756;4.472;2024-02-04T06:16:38;27.83;;;9.98;;
8831;SDS011;4452;50.756;4.472;2024-02-04T06:19:03;44.83;;;11.50;;
8831;SDS011;4452;50.756;4.472;2024-02-04T06:21:29;31.10;;;9.82;;
8831;SDS011;4452;50.756;4.472;2024-02-04T06:23:55;39.03;;;11.30;;
8831;SDS011;4452;50.756;4.472;2024-02-04T06:26:21;35.33;;;8.27;;
8831;SDS011;4452;50.756;4.472;2024-02-04T06:28:46;13.52;;;5.00;;
8831;SDS011;4452;50.756;4.472;2024-02-04T06:31:14;24.00;;;7.63;;
8831;SDS011;4452;50.756;4.472;2024-02-04T06:33:39;19.83;;;7.43;;
8831;SDS011;4452;50.756;4.472;2024-02-04T06:36:09;30.48;;;8.80;;
8831;SDS011;4452;50.756;4.472;2024-02-04T06:38:35;31.35;;;9.32;;
8831;SDS011;4452;50.756;4.472;2024-02-04T06:41:01;23.95;;;7.82;;
8831;SDS011;4452;50.756;4.472;2024-02-04T06:43:27;16.45;;;6.15;;
8831;SDS011;4452;50.756;4.472;2024-02-04T06:45:53;22.73;;;7.90;;
8831;SDS011;4452;50.756;4.472;2024-02-04T06:48:19;28.67;;;8.65;;
8831;SDS011;4452;50.756;4.472;2024-02-04T06:50:45;32.67;;;9.98;;
8831;SDS011;4452;50.756;4.472;2024-02-04T06:53:13;32.47;;;8.52;;
8831;SDS011;4452;50.756;4.472;2024-02-04T06:55:39;31.95;;;9.63;;
8831;SDS011;4452;50.756;4.472;2024-02-04T06:58:05;36.00;;;8.98;;
8831;SDS011;4452;50.756;4.472;2024-02-04T07:00:30;26.65;;;7.82;;
8831;SDS011;4452;50.756;4.472;2024-02-04T07:02:56;33.63;;;9.25;;
8831;SDS011;4452;50.756;4.472;2024-02-04T07:05:22;10.02;;;5.95;;
8831;SDS011;4452;50.756;4.472;2024-02-04T07:07:48;33.50;;;9.60;;
8831;SDS011;4452;50.756;4.472;2024-02-04T07:10:15;25.88;;;7.85;;
8831;SDS011;4452;50.756;4.472;2024-02-04T07:12:41;20.08;;;7.97;;
8831;SDS011;4452;50.756;4.472;2024-02-04T07:15:08;27.88;;;7.57;;
8831;SDS011;4452;50.756;4.472;2024-02-04T07:17:34;23.48;;;8.65;;
8831;SDS011;4452;50.756;4.472;2024-02-04T07:20:01;39.50;;;10.35;;
8831;SDS011;4452;50.756;4.472;2024-02-04T07:22:28;29.70;;;9.57;;
8831;SDS011;4452;50.756;4.472;2024-02-04T07:24:54;39.63;;;11.25;;
8831;SDS011;4452;50.756;4.472;2024-02-04T07:27:19;19.40;;;7.10;;
8831;SDS011;4452;50.756;4.472;2024-02-04T07:29:45;25.55;;;8.63;;
8831;SDS011;4452;50.756;4.472;2024-02-04T07:32:12;29.70;;;10.05;;
8831;SDS011;4452;50.756;4.472;2024-02-04T07:34:39;27.88;;;8.70;;
8831;SDS011;4452;50.756;4.472;2024-02-04T07:37:05;38.47;;;10.95;;
8831;SDS011;4452;50.756;4.472;2024-02-04T07:39:31;40.85;;;11.88;;
8831;SDS011;4452;50.756;4.472;2024-02-04T07:41:57;35.40;;;10.27;;
8831;SDS011;4452;50.756;4.472;2024-02-04T07:44:29;17.67;;;9.25;;
8831;SDS011;4452;50.756;4.472;2024-02-04T07:46:54;40.85;;;10.85;;
8831;SDS011;4452;50.756;4.472;2024-02-04T07:49:20;32.05;;;9.70;;
8831;SDS011;4452;50.756;4.472;2024-02-04T07:51:46;35.92;;;9.70;;
8831;SDS011;4452;50.756;4.472;2024-02-04T07:54:12;31.92;;;11.25;;
8831;SDS011;4452;50.756;4.472;2024-02-04T07:56:38;37.13;;;10.85;;
8831;SDS011;4452;50.756;4.472;2024-02-04T07:59:03;30.23;;;8.05;;
8831;SDS011;4452;50.756;4.472;2024-02-04T08:01:29;36.75;;;11.45;;
8831;SDS011;4452;50.756;4.472;2024-02-04T08:03:55;36.47;;;10.43;;
8831;SDS011;4452;50.756;4.472;2024-02-04T08:06:21;28.92;;;9.93;;
8831;SDS011;4452;50.756;4.472;2024-02-04T08:08:47;33.72;;;11.45;;
8831;SDS011;4452;50.756;4.472;2024-02-04T08:11:20;32.60;;;11.70;;
8831;SDS011;4452;50.756;4.472;2024-02-04T08:13:46;30.08;;;10.23;;
8831;SDS011;4452;50.756;4.472;2024-02-04T08:16:12;33.35;;;10.10;;
8831;SDS011;4452;50.756;4.472;2024-02-04T08:18:38;35.50;;;9.57;;
8831;SDS011;4452;50.756;4.472;2024-02-04T08:21:04;25.25;;;8.77;;
8831;SDS011;4452;50.756;4.472;2024-02-04T08:23:29;23.67;;;7.38;;
8831;SDS011;4452;50.756;4.472;2024-02-04T08:25:55;23.75;;;9.57;;
8831;SDS011;4452;50.756;4.472;2024-02-04T08:28:22;19.38;;;10.50;;
8831;SDS011;4452;50.756;4.472;2024-02-04T08:30:48;16.08;;;8.32;;
8831;SDS011;4452;50.756;4.472;2024-02-04T08:33:14;27.38;;;9.63;;
8831;SDS011;4452;50.756;4.472;2024-02-04T08:35:45;25.15;;;8.68;;
8831;SDS011;4452;50.756;4.472;2024-02-04T08:38:11;24.38;;;8.45;;
8831;SDS011;4452;50.756;4.472;2024-02-04T08:40:37;18.92;;;8.30;;
8831;SDS011;4452;50.756;4.472;2024-02-04T08:43:02;23.23;;;8.75;;
8831;SDS011;4452;50.756;4.472;2024-02-04T08:45:28;29.73;;;8.50;;
8831;SDS011;4452;50.756;4.472;2024-02-04T08:47:54;26.40;;;7.30;;
8831;SDS011;4452;50.756;4.472;2024-02-04T08:50:20;14.55;;;8.60;;
8831;SDS011;4452;50.756;4.472;2024-02-04T08:52:45;17.02;;;6.20;;
8831;SDS011;4452;50.756;4.472;2024-02-04T08:55:11;16.73;;;7.47;;
8831;SDS011;4452;50.756;4.472;2024-02-04T08:57:37;15.27;;;7.50;;
8831;SDS011;4452;50.756;4.472;2024-02-04T09:00:03;22.23;;;6.78;;
8831;SDS011;4452;50.756;4.472;2024-02-04T09:02:29;14.45;;;6.90;;
8831;SDS011;4452;50.756;4.472;2024-02-04T09:04:55;21.45;;;7.55;;
8831;SDS011;4452;50.756;4.472;2024-02-04T09:07:21;18.95;;;6.28;;
8831;SDS011;4452;50.756;4.472;2024-02-04T09:09:46;17.15;;;6.50;;
8831;SDS011;4452;50.756;4.472;2024-02-04T09:12:12;13.13;;;5.68;;
8831;SDS011;4452;50.756;4.472;2024-02-04T09:14:38;7.00;;;4.60;;
8831;SDS011;4452;50.756;4.472;2024-02-04T09:17:05;13.80;;;5.68;;
8831;SDS011;4452;50.756;4.472;2024-02-04T09:19:31;8.00;;;4.28;;
8831;SDS011;4452;50.756;4.472;2024-02-04T09:21:57;5.95;;;4.13;;
8831;SDS011;4452;50.756;4.472;2024-02-04T09:24:23;10.63;;;4.50;;
8831;SDS011;4452;50.756;4.472;2024-02-04T09:26:48;12.38;;;6.28;;
8831;SDS011;4452;50.756;4.472;2024-02-04T09:29:14;10.52;;;5.97;;
8831;SDS011;4452;50.756;4.472;2024-02-04T09:31:40;9.30;;;5.03;;
8831;SDS011;4452;50.756;4.472;2024-02-04T09:34:06;6.80;;;4.75;;
8831;SDS011;4452;50.756;4.472;2024-02-04T09:36:31;10.27;;;5.47;;
8831;SDS011;4452;50.756;4.472;2024-02-04T09:38:57;6.68;;;3.67;;
8831;SDS011;4452;50.756;4.472;2024-02-04T09:41:23;5.95;;;3.75;;
8831;SDS011;4452;50.756;4.472;2024-02-04T09:43:50;5.47;;;4.50;;
8831;SDS011;4452;50.756;4.472;2024-02-04T09:46:17;7.35;;;3.80;;
8831;SDS011;4452;50.756;4.472;2024-02-04T09:48:44;4.07;;;3.05;;
8831;SDS011;4452;50.756;4.472;2024-02-04T09:51:10;6.18;;;3.10;;
8831;SDS011;4452;50.756;4.472;2024-02-04T09:53:36;7.50;;;3.55;;
8831;SDS011;4452;50.756;4.472;2024-02-04T09:56:09;5.93;;;4.60;;
8831;SDS011;4452;50.756;4.472;2024-02-04T09:58:36;3.85;;;3.40;;
8831;SDS011;4452;50.756;4.472;2024-02-04T10:01:04;6.30;;;3.88;;
8831;SDS011;4452;50.756;4.472;2024-02-04T10:03:30;7.47;;;3.70;;
8831;SDS011;4452;50.756;4.472;2024-02-04T10:05:56;4.13;;;3.83;;
8831;SDS011;4452;50.756;4.472;2024-02-04T10:08:22;6.07;;;4.82;;
8831;SDS011;4452;50.756;4.472;2024-02-04T10:10:48;9.68;;;4.03;;
8831;SDS011;4452;50.756;4.472;2024-02-04T10:13:14;7.93;;;4.38;;
8831;SDS011;4452;50.756;4.472;2024-02-04T10:15:39;10.45;;;4.75;;
8831;SDS011;4452;50.756;4.472;2024-02-04T10:18:06;8.88;;;5.70;;
8831;SDS011;4452;50.756;4.472;2024-02-04T10:20:32;10.32;;;4.85;;
8831;SDS011;4452;50.756;4.472;2024-02-04T10:22:58;7.50;;;4.93;;
8831;SDS011;4452;50.756;4.472;2024-02-04T10:25:24;7.38;;;5.28;;
8831;SDS011;4452;50.756;4.472;2024-02-04T10:27:50;7.70;;;4.25;;
8831;SDS011;4452;50.756;4.472;2024-02-04T10:30:18;6.03;;;4.65;;
8831;SDS011;4452;50.756;4.472;2024-02-04T10:32:46;7.18;;;4.28;;
8831;SDS011;4452;50.756;4.472;2024-02-04T10:35:12;6.47;;;4.68;;
8831;SDS011;4452;50.756;4.472;2024-02-04T10:37:38;5.53;;;4.13;;
8831;SDS011;4452;50.756;4.472;2024-02-04T10:40:04;9.48;;;4.47;;
8831;SDS011;4452;50.756;4.472;2024-02-04T10:42:30;11.48;;;3.95;;
8831;SDS011;4452;50.756;4.472;2024-02-04T10:44:57;5.32;;;4.22;;
8831;SDS011;4452;50.756;4.472;2024-02-04T10:47:28;5.97;;;3.97;;
8831;SDS011;4452;50.756;4.472;2024-02-04T10:49:58;8.40;;;4.10;;
8831;SDS011;4452;50.756;4.472;2024-02-04T10:52:25;5.53;;;3.30;;
8831;SDS011;4452;50.756;4.472;2024-02-04T10:54:53;6.20;;;3.55;;
8831;SDS011;4452;50.756;4.472;2024-02-04T10:57:21;6.70;;;4.50;;
8831;SDS011;4452;50.756;4.472;2024-02-04T10:59:53;4.82;;;3.47;;
8831;SDS011;4452;50.756;4.472;2024-02-04T11:02:19;3.38;;;2.92;;
8831;SDS011;4452;50.756;4.472;2024-02-04T11:04:45;3.85;;;3.55;;
8831;SDS011;4452;50.756;4.472;2024-02-04T11:07:14;4.70;;;3.35;;
8831;SDS011;4452;50.756;4.472;2024-02-04T11:09:40;3.55;;;2.83;;
8831;SDS011;4452;50.756;4.472;2024-02-04T11:12:09;3.28;;;2.83;;
8831;SDS011;4452;50.756;4.472;2024-02-04T11:14:38;2.78;;;2.67;;
8831;SDS011;4452;50.756;4.472;2024-02-04T11:25:45;2.97;;;2.70;;
8831;SDS011;4452;50.756;4.472;2024-02-04T11:28:16;3.42;;;2.30;;
8831;SDS011;4452;50.756;4.472;2024-02-04T11:30:44;3.45;;;2.85;;
8831;SDS011;4452;50.756;4.472;2024-02-04T11:33:10;2.50;;;2.40;;
8831;SDS011;4452;50.756;4.472;2024-02-04T11:35:37;2.72;;;2.63;;
8831;SDS011;4452;50.756;4.472;2024-02-04T11:38:03;2.53;;;2.33;;
8831;SDS011;4452;50.756;4.472;2024-02-04T11:40:30;2.42;;;2.33;;
8831;SDS011;4452;50.756;4.472;2024-02-04T11:43:11;3.90;;;2.85;;
8831;SDS011;4452;50.756;4.472;2024-02-04T11:45:39;3.28;;;2.92;;
8831;SDS011;4452;50.756;4.472;2024-02-04T11:48:09;4.78;;;3.00;;
8831;SDS011;4452;50.756;4.472;2024-02-04T11:50:36;6.38;;;3.17;;
8831;SDS011;4452;50.756;4.472;2024-02-04T11:53:07;2.95;;;2.65;;
8831;SDS011;4452;50.756;4.472;2024-02-04T11:55:34;3.22;;;2.95;;
8831;SDS011;4452;50.756;4.472;2024-02-04T11:58:01;3.78;;;3.45;;
8831;SDS011;4452;50.756;4.472;2024-02-04T12:00:28;5.30;;;4.53;;
8831;SDS011;4452;50.756;4.472;2024-02-04T12:03:01;3.30;;;3.00;;
8831;SDS011;4452;50.756;4.472;2024-02-04T12:05:34;3.58;;;3.28;;
8831;SDS011;4452;50.756;4.472;2024-02-04T12:08:01;8.68;;;3.40;;
8831;SDS011;4452;50.756;4.472;2024-02-04T12:10:31;3.92;;;3.00;;
8831;SDS011;4452;50.756;4.472;2024-02-04T12:13:04;5.68;;;3.30;;
8831;SDS011;4452;50.756;4.472;2024-02-04T12:15:35;3.97;;;3.58;;
8831;SDS011;4452;50.756;4.472;2024-02-04T12:20:35;5.63;;;3.45;;
8831;SDS011;4452;50.756;4.472;2024-02-04T12:23:02;5.30;;;3.17;;
8831;SDS011;4452;50.756;4.472;2024-02-04T12:25:34;3.30;;;3.10;;
8831;SDS011;4452;50.756;4.472;2024-02-04T12:28:01;4.55;;;4.13;;
8831;SDS011;4452;50.756;4.472;2024-02-04T12:30:28;3.28;;;3.00;;
8831;SDS011;4452;50.756;4.472;2024-02-04T12:33:01;3.92;;;3.47;;
8831;SDS011;4452;50.756;4.472;2024-02-04T12:35:29;4.00;;;3.35;;
8831;SDS011;4452;50.756;4.472;2024-02-04T12:37:56;4.57;;;4.18;;
8831;SDS011;4452;50.756;4.472;2024-02-04T12:40:27;6.53;;;4.15;;
8831;SDS011;4452;50.756;4.472;2024-02-04T12:43:01;4.55;;;4.15;;
8831;SDS011;4452;50.756;4.472;2024-02-04T12:45:28;5.85;;;4.82;;
8831;SDS011;4452;50.756;4.472;2024-02-04T12:47:57;5.55;;;4.00;;
8831;SDS011;4452;50.756;4.472;2024-02-04T12:50:23;3.65;;;3.00;;
8831;SDS011;4452;50.756;4.472;2024-02-04T12:53:01;4.55;;;3.65;;
8831;SDS011;4452;50.756;4.472;2024-02-04T12:55:27;3.30;;;2.97;;
8831;SDS011;4452;50.756;4.472;2024-02-04T12:58:01;5.10;;;3.22;;
8831;SDS011;4452;50.756;4.472;2024-02-04T13:00:35;3.17;;;2.97;;
8831;SDS011;4452;50.756;4.472;2024-02-04T13:03:04;3.50;;;2.95;;
8831;SDS011;4452;50.756;4.472;2024-02-04T13:05:35;2.30;;;2.10;;
8831;SDS011;4452;50.756;4.472;2024-02-04T13:08:04;4.75;;;2.80;;
8831;SDS011;4452;50.756;4.472;2024-02-04T13:10:34;4.50;;;2.78;;
8831;SDS011;4452;50.756;4.472;2024-02-04T13:13:03;2.83;;;2.67;;
8831;SDS011;4452;50.756;4.472;2024-02-04T13:15:37;4.63;;;2.85;;
8831;SDS011;4452;50.756;4.472;2024-02-04T13:18:10;3.38;;;2.88;;
8831;SDS011;4452;50.756;4.472;2024-02-04T13:20:42;4.85;;;3.35;;
8831;SDS011;4452;50.756;4.472;2024-02-04T13:23:11;7.38;;;3.65;;
8831;SDS011;4452;50.756;4.472;2024-02-04T13:25:37;3.42;;;3.10;;
8831;SDS011;4452;50.756;4.472;2024-02-04T13:28:05;3.67;;;3.38;;
8831;SDS011;4452;50.756;4.472;2024-02-04T13:30:37;3.58;;;3.25;;
8831;SDS011;4452;50.756;4.472;2024-02-04T13:33:05;4.28;;;3.00;;
8831;SDS011;4452;50.756;4.472;2024-02-04T13:35:35;2.85;;;2.55;;
8831;SDS011;4452;50.756;4.472;2024-02-04T13:38:03;3.45;;;3.15;;
8831;SDS011;4452;50.756;4.472;2024-02-04T13:40:31;2.78;;;2.22;;
8831;SDS011;4452;50.756;4.472;2024-02-04T13:42:57;5.32;;;3.00;;
8831;SDS011;4452;50.756;4.472;2024-02-04T13:45:22;4.10;;;3.70;;
8831;SDS011;4452;50.756;4.472;2024-02-04T13:47:48;5.28;;;2.88;;
8831;SDS011;4452;50.756;4.472;2024-02-04T13:50:14;3.20;;;2.33;;
8831;SDS011;4452;50.756;4.472;2024-02-04T13:52:40;3.28;;;2.97;;
8831;SDS011;4452;50.756;4.472;2024-02-04T13:55:05;5.43;;;2.97;;
8831;SDS011;4452;50.756;4.472;2024-02-04T13:57:34;2.72;;;2.40;;
8831;SDS011;4452;50.756;4.472;2024-02-04T14:00:01;6.78;;;3.42;;
8831;SDS011;4452;50.756;4.472;2024-02-04T14:02:29;6.47;;;3.10;;
8831;SDS011;4452;50.756;4.472;2024-02-04T14:04:55;6.20;;;3.47;;
8831;SDS011;4452;50.756;4.472;2024-02-04T14:07:22;4.22;;;2.78;;
8831;SDS011;4452;50.756;4.472;2024-02-04T14:09:47;6.57;;;2.75;;
8831;SDS011;4452;50.756;4.472;2024-02-04T14:12:13;8.27;;;3.50;;
8831;SDS011;4452;50.756;4.472;2024-02-04T14:14:39;10.63;;;3.47;;
8831;SDS011;4452;50.756;4.472;2024-02-04T14:17:05;7.50;;;3.05;;
8831;SDS011;4452;50.756;4.472;2024-02-04T14:19:31;10.63;;;3.53;;
8831;SDS011;4452;50.756;4.472;2024-02-04T14:21:56;8.55;;;3.75;;
8831;SDS011;4452;50.756;4.472;2024-02-04T14:24:22;5.50;;;3.60;;
8831;SDS011;4452;50.756;4.472;2024-02-04T14:26:48;6.10;;;3.60;;
8831;SDS011;4452;50.756;4.472;2024-02-04T14:29:14;11.07;;;3.70;;
8831;SDS011;4452;50.756;4.472;2024-02-04T14:31:41;6.72;;;2.80;;
8831;SDS011;4452;50.756;4.472;2024-02-04T14:34:06;7.70;;;4.00;;
8831;SDS011;4452;50.756;4.472;2024-02-04T14:36:32;9.30;;;3.67;;
8831;SDS011;4452;50.756;4.472;2024-02-04T14:38:59;3.75;;;3.35;;
8831;SDS011;4452;50.756;4.472;2024-02-04T14:41:26;4.70;;;3.13;;
8831;SDS011;4452;50.756;4.472;2024-02-04T14:43:52;9.20;;;3.90;;
8831;SDS011;4452;50.756;4.472;2024-02-04T14:46:17;7.57;;;3.08;;
8831;SDS011;4452;50.756;4.472;2024-02-04T14:48:43;10.90;;;4.35;;
8831;SDS011;4452;50.756;4.472;2024-02-04T14:51:09;8.40;;;4.00;;
8831;SDS011;4452;50.756;4.472;2024-02-04T14:53:35;10.55;;;5.03;;
8831;SDS011;4452;50.756;4.472;2024-02-04T14:56:01;11.25;;;3.97;;
8831;SDS011;4452;50.756;4.472;2024-02-04T14:58:27;10.32;;;3.95;;
8831;SDS011;4452;50.756;4.472;2024-02-04T15:00:53;7.88;;;3.55;;
8831;SDS011;4452;50.756;4.472;2024-02-04T15:03:18;6.07;;;3.85;;
8831;SDS011;4452;50.756;4.472;2024-02-04T15:05:44;4.70;;;3.75;;
8831;SDS011;4452;50.756;4.472;2024-02-04T15:08:10;4.53;;;3.20;;
8831;SDS011;4452;50.756;4.472;2024-02-04T15:10:35;10.65;;;5.13;;
8831;SDS011;4452;50.756;4.472;2024-02-04T15:13:02;9.75;;;4.95;;
8831;SDS011;4452;50.756;4.472;2024-02-04T15:15:28;8.38;;;6.25;;